createdAt,value
2018-05-10T00:02:06.014Z,99.90
2018-05-10T00:04:33.625Z,99.90
2018-05-10T00:07:02.007Z,99.90
2018-05-10T00:09:30.350Z,99.90
2018-05-10T00:11:57.974Z,99.90
2018-05-10T00:14:25.550Z,99.90
2018-05-10T00:16:53.152Z,99.90
2018-05-10T00:19:21.520Z,99.90
2018-05-10T00:21:49.158Z,99.90
2018-05-10T00:24:16.886Z,99.90
2018-05-10T00:26:45.283Z,99.90
2018-05-10T00:29:12.951Z,99.90
2018-05-10T00:31:40.567Z,99.90
2018-05-10T00:34:09.018Z,99.90
2018-05-10T00:36:36.633Z,99.90
2018-05-10T00:39:04.286Z,99.90
2018-05-10T00:41:32.682Z,99.90
2018-05-10T00:44:00.272Z,99.90
2018-05-10T00:46:27.924Z,99.90
2018-05-10T00:48:55.547Z,99.90
2018-05-10T00:51:23.995Z,99.90
2018-05-10T00:53:51.651Z,99.90
2018-05-10T00:56:19.258Z,99.90
2018-05-10T00:58:47.629Z,99.90
2018-05-10T01:01:15.991Z,99.90
2018-05-10T01:03:43.626Z,99.90
2018-05-10T01:06:11.233Z,99.90
2018-05-10T01:08:39.636Z,99.90
2018-05-10T01:11:07.326Z,99.90
2018-05-10T01:13:35.009Z,99.90
2018-05-10T01:16:02.678Z,99.90
2018-05-10T01:18:31.087Z,99.90
2018-05-10T01:20:58.720Z,99.90
2018-05-10T01:23:26.418Z,99.90
2018-05-10T01:25:54.123Z,99.90
2018-05-10T01:30:55.670Z,99.90
2018-05-10T01:33:23.281Z,99.90
2018-05-10T01:36:02.705Z,99.90
2018-05-10T01:38:30.373Z,99.90
2018-05-10T01:40:58.030Z,99.90
2018-05-10T01:43:25.660Z,99.90
2018-05-10T01:45:53.366Z,99.90
2018-05-10T01:48:21.021Z,99.90
2018-05-10T01:50:48.658Z,99.90
2018-05-10T01:53:16.269Z,99.90
2018-05-10T01:55:44.652Z,99.90
2018-05-10T01:58:13.063Z,99.90
2018-05-10T02:00:40.730Z,99.90
2018-05-10T02:03:08.329Z,99.90
2018-05-10T02:05:35.925Z,99.90
2018-05-10T02:08:03.541Z,99.90
2018-05-10T02:10:31.126Z,99.90
2018-05-10T02:12:59.499Z,99.90
2018-05-10T02:15:27.890Z,99.90
2018-05-10T02:17:56.323Z,99.90
2018-05-10T02:20:24.002Z,99.90
2018-05-10T02:22:51.658Z,99.90
2018-05-10T02:25:19.269Z,99.90
2018-05-10T02:27:46.889Z,99.90
2018-05-10T02:30:14.515Z,99.90
2018-05-10T02:32:42.094Z,99.90
2018-05-10T02:35:09.778Z,99.90
2018-05-10T02:37:37.441Z,99.90
2018-05-10T02:40:05.107Z,99.90
2018-05-10T02:42:32.721Z,99.90
2018-05-10T02:45:00.359Z,99.90
2018-05-10T02:47:27.980Z,99.90
2018-05-10T02:49:55.618Z,99.90
2018-05-10T02:52:23.247Z,99.90
2018-05-10T02:54:50.848Z,99.90
2018-05-10T02:57:18.503Z,99.90
2018-05-10T02:59:46.170Z,99.90
2018-05-10T03:02:13.839Z,99.90
2018-05-10T03:04:42.096Z,99.90
2018-05-10T03:07:09.703Z,99.90
2018-05-10T03:09:38.141Z,99.90
2018-05-10T03:12:05.792Z,99.90
2018-05-10T03:14:33.412Z,99.90
2018-05-10T03:17:01.761Z,99.90
2018-05-10T03:19:29.421Z,99.90
2018-05-10T03:21:57.141Z,99.90
2018-05-10T03:24:24.740Z,99.90
2018-05-10T03:26:52.334Z,99.90
2018-05-10T03:29:20.694Z,99.90
2018-05-10T03:31:48.299Z,99.90
2018-05-10T03:34:15.926Z,99.90
2018-05-10T03:36:43.560Z,99.90
2018-05-10T03:39:11.935Z,99.90
2018-05-10T03:41:39.539Z,99.90
2018-05-10T03:44:07.925Z,99.90
2018-05-10T03:46:36.304Z,99.90
2018-05-10T03:49:04.720Z,99.90
2018-05-10T03:51:32.328Z,99.90
2018-05-10T03:54:00.700Z,99.90
2018-05-10T03:56:28.309Z,99.90
2018-05-10T03:58:55.935Z,99.90
2018-05-10T04:01:24.360Z,99.90
2018-05-10T04:07:08.480Z,99.90
2018-05-10T04:09:48.619Z,99.90
2018-05-10T04:12:16.200Z,99.90
2018-05-10T04:14:44.600Z,99.90
2018-05-10T04:17:12.240Z,99.90
2018-05-10T04:19:40.983Z,99.90
2018-05-10T04:22:09.370Z,99.90
2018-05-10T04:24:37.019Z,99.90
2018-05-10T04:27:04.636Z,99.90
2018-05-10T04:29:33.050Z,99.90
2018-05-10T04:32:00.711Z,99.90
2018-05-10T04:34:28.325Z,99.90
2018-05-10T04:36:56.760Z,99.90
2018-05-10T04:39:24.370Z,99.90
2018-05-10T04:41:52.056Z,99.90
2018-05-10T04:44:19.657Z,99.90
2018-05-10T04:46:47.287Z,99.90
2018-05-10T04:49:14.890Z,99.90
2018-05-10T04:51:42.509Z,99.90
2018-05-10T04:54:10.169Z,99.90
2018-05-10T04:56:37.782Z,99.90
2018-05-10T04:59:05.399Z,99.90
2018-05-10T05:01:32.967Z,99.90
2018-05-10T05:04:00.592Z,99.90
2018-05-10T05:06:28.997Z,99.90
2018-05-10T05:08:56.635Z,99.90
2018-05-10T05:11:24.982Z,99.90
2018-05-10T05:13:52.669Z,99.90
2018-05-10T05:16:21.107Z,99.90
2018-05-10T05:18:48.786Z,99.90
2018-05-10T05:21:16.393Z,99.90
2018-05-10T05:23:44.017Z,99.90
2018-05-10T05:26:11.630Z,99.90
2018-05-10T05:28:39.260Z,99.90
2018-05-10T05:31:07.662Z,99.90
2018-05-10T05:33:35.296Z,99.90
2018-05-10T05:36:03.662Z,99.90
2018-05-10T05:38:31.254Z,99.90
2018-05-10T05:40:58.849Z,99.90
2018-05-10T05:43:26.574Z,99.90
2018-05-10T05:45:54.122Z,99.90
2018-05-10T05:48:22.510Z,99.90
2018-05-10T05:50:51.068Z,99.90
2018-05-10T05:55:40.669Z,99.90
2018-05-10T05:58:08.263Z,99.90
2018-05-10T06:00:36.643Z,99.90
2018-05-10T06:03:04.239Z,99.90
2018-05-10T06:05:31.826Z,99.90
2018-05-10T06:07:59.455Z,99.90
2018-05-10T06:10:27.105Z,99.90
2018-05-10T06:12:54.720Z,99.90
2018-05-10T06:15:23.117Z,99.90
2018-05-10T06:17:51.509Z,99.90
2018-05-10T06:20:20.128Z,99.90
2018-05-10T06:22:47.747Z,99.90
2018-05-10T06:25:15.434Z,99.90
2018-05-10T06:27:43.046Z,99.90
2018-05-10T06:30:11.465Z,99.90
2018-05-10T06:32:39.110Z,99.90
2018-05-10T06:35:06.745Z,99.90
2018-05-10T06:37:35.113Z,99.90
2018-05-10T06:40:02.720Z,99.90
2018-05-10T06:42:30.321Z,99.90
2018-05-10T06:44:57.980Z,99.90
2018-05-10T06:47:25.599Z,99.90
2018-05-10T06:49:53.198Z,99.90
2018-05-10T06:52:20.819Z,99.90
2018-05-10T06:54:48.447Z,99.90
2018-05-10T06:57:16.875Z,99.90
2018-05-10T06:59:44.527Z,99.90
2018-05-10T07:02:12.150Z,99.90
2018-05-10T07:04:40.564Z,99.90
2018-05-10T07:07:08.200Z,99.90
2018-05-10T07:09:36.605Z,99.90
2018-05-10T07:12:04.210Z,99.90
2018-05-10T07:14:31.870Z,99.90
2018-05-10T07:16:59.501Z,98.60
2018-05-10T07:19:28.667Z,98.70
2018-05-10T07:21:56.350Z,98.60
2018-05-10T07:24:23.960Z,95.50
2018-05-10T07:26:52.360Z,94.50
2018-05-10T07:29:20.000Z,94.50
2018-05-10T07:31:48.379Z,94.80
2018-05-10T07:34:16.781Z,94.20
2018-05-10T07:36:44.401Z,94.20
2018-05-10T07:39:12.031Z,94.40
2018-05-10T07:41:39.684Z,93.40
2018-05-10T07:44:07.356Z,92.30
2018-05-10T07:46:34.980Z,90.50
2018-05-10T07:49:03.568Z,87.20
2018-05-10T07:51:31.184Z,85.20
2018-05-10T07:53:58.791Z,83.40
2018-05-10T07:56:26.379Z,87.50
2018-05-10T07:58:54.011Z,87.70
2018-05-10T08:01:22.421Z,80.20
2018-05-10T08:03:50.027Z,80.20
2018-05-10T08:06:18.464Z,80.50
2018-05-10T08:08:46.064Z,80.50
2018-05-10T08:11:14.453Z,79.30
2018-05-10T08:13:42.092Z,79.20
2018-05-10T08:16:10.470Z,75.40
2018-05-10T08:18:38.120Z,75.30
2018-05-10T08:21:05.776Z,77.90
2018-05-10T08:23:45.200Z,78.10
2018-05-10T08:26:12.856Z,78.30
2018-05-10T08:28:40.455Z,75.60
2018-05-10T08:31:08.853Z,72.70
2018-05-10T08:33:38.719Z,72.20
2018-05-10T08:36:06.628Z,72.00
2018-05-10T08:38:35.323Z,72.90
2018-05-10T08:41:02.934Z,67.10
2018-05-10T08:43:30.585Z,64.80
2018-05-10T08:45:58.298Z,66.80
2018-05-10T08:48:25.928Z,64.20
2018-05-10T08:50:54.764Z,64.40
2018-05-10T08:53:22.392Z,59.20
2018-05-10T08:55:50.798Z,58.30
2018-05-10T08:58:18.421Z,58.20
2018-05-10T09:00:46.810Z,55.70
2018-05-10T09:03:15.786Z,56.40
2018-05-10T09:05:43.395Z,56.30
2018-05-10T09:08:11.019Z,55.20
2018-05-10T09:10:39.434Z,56.60
2018-05-10T09:13:07.051Z,56.50
2018-05-10T09:15:35.443Z,54.10
2018-05-10T09:18:03.820Z,54.50
2018-05-10T09:20:32.200Z,55.10
2018-05-10T09:23:00.598Z,53.40
2018-05-10T09:25:35.924Z,53.30
2018-05-10T09:28:03.861Z,53.40
2018-05-10T09:35:59.142Z,52.30
2018-05-10T09:38:29.450Z,52.90
2018-05-10T09:41:17.405Z,53.90
2018-05-10T09:43:45.440Z,53.90
2018-05-10T09:46:17.410Z,54.50
2018-05-10T09:48:53.074Z,53.70
2018-05-10T09:51:22.847Z,53.60
2018-05-10T09:53:50.436Z,53.20
2018-05-10T09:56:18.848Z,52.40
2018-05-10T09:58:59.859Z,52.40
2018-05-10T10:01:27.598Z,52.90
2018-05-10T10:03:55.810Z,54.80
2018-05-10T10:06:24.320Z,54.50
2018-05-10T10:08:51.920Z,53.70
2018-05-10T10:11:19.556Z,54.30
2018-05-10T10:13:47.160Z,52.70
2018-05-10T10:16:15.071Z,51.90
2018-05-10T10:18:46.321Z,52.30
2018-05-10T10:21:13.921Z,52.80
2018-05-10T10:23:41.570Z,51.90
2018-05-10T10:26:09.211Z,51.70
2018-05-10T10:28:38.685Z,52.50
2018-05-10T10:31:07.079Z,52.10
2018-05-10T10:33:34.747Z,52.00
2018-05-10T10:36:02.398Z,52.20
2018-05-10T10:38:30.020Z,52.50
2018-05-10T10:40:57.704Z,50.50
2018-05-10T10:43:26.138Z,49.50
2018-05-10T10:45:53.849Z,49.50
2018-05-10T10:48:22.233Z,48.40
2018-05-10T10:50:51.126Z,48.40
2018-05-10T10:53:18.812Z,49.90
2018-05-10T10:55:46.450Z,49.90
2018-05-10T10:58:15.538Z,48.40
2018-05-10T11:00:43.913Z,48.50
2018-05-10T11:03:12.675Z,45.60
2018-05-10T11:05:40.391Z,45.50
2018-05-10T11:08:08.012Z,43.90
2018-05-10T11:10:36.379Z,45.70
2018-05-10T11:13:04.110Z,45.60
2018-05-10T11:15:31.784Z,45.60
2018-05-10T11:17:59.441Z,46.30
2018-05-10T11:20:27.107Z,46.80
2018-05-10T11:22:55.496Z,46.40
2018-05-10T11:25:23.151Z,46.40
2018-05-10T11:27:50.765Z,45.30
2018-05-10T11:30:18.494Z,43.90
2018-05-10T11:32:46.867Z,41.30
2018-05-10T11:35:17.898Z,41.20
2018-05-10T11:37:45.554Z,41.10
2018-05-10T11:40:13.235Z,41.80
2018-05-10T11:42:41.626Z,41.40
2018-05-10T11:45:09.993Z,41.50
2018-05-10T11:47:38.379Z,42.50
2018-05-10T11:50:06.748Z,43.20
2018-05-10T11:52:35.170Z,44.90
2018-05-10T11:55:02.820Z,44.90
2018-05-10T11:57:52.771Z,45.40
2018-05-10T12:00:21.280Z,42.50
2018-05-10T12:02:48.954Z,42.50
2018-05-10T12:05:17.501Z,40.80
2018-05-10T12:07:45.919Z,41.40
2018-05-10T12:10:15.519Z,41.40
2018-05-10T12:12:44.931Z,40.10
2018-05-10T12:15:14.077Z,39.90
2018-05-10T12:17:43.076Z,39.80
2018-05-10T12:20:11.510Z,40.20
2018-05-10T12:22:39.097Z,40.10
2018-05-10T12:25:06.740Z,40.60
2018-05-10T12:27:34.381Z,41.20
2018-05-10T12:30:02.010Z,42.50
2018-05-10T12:32:29.621Z,42.80
2018-05-10T12:34:57.202Z,42.80
2018-05-10T12:37:24.858Z,41.80
2018-05-10T12:39:53.760Z,42.70
2018-05-10T12:42:22.150Z,42.10
2018-05-10T12:44:50.505Z,41.80
2018-05-10T12:47:18.090Z,41.80
2018-05-10T12:49:45.735Z,40.90
2018-05-10T12:52:14.120Z,42.10
2018-05-10T12:54:43.320Z,43.30
2018-05-10T12:57:11.697Z,42.40
2018-05-10T12:59:39.338Z,42.30
2018-05-10T13:02:08.165Z,42.10
2018-05-10T13:04:35.795Z,40.90
2018-05-10T13:07:04.155Z,42.90
2018-05-10T13:09:31.809Z,42.80
2018-05-10T13:11:59.426Z,41.00
2018-05-10T13:14:27.080Z,40.80
2018-05-10T13:16:54.672Z,39.90
2018-05-10T13:19:22.254Z,39.90
2018-05-10T13:21:50.704Z,39.40
2018-05-10T13:24:19.022Z,40.20
2018-05-10T13:26:46.653Z,40.20
2018-05-10T13:29:14.290Z,40.60
2018-05-10T13:31:41.909Z,41.80
2018-05-10T13:34:10.265Z,41.50
2018-05-10T13:36:37.893Z,41.30
2018-05-10T13:39:05.583Z,42.20
2018-05-10T13:41:33.210Z,41.50
2018-05-10T13:44:00.835Z,41.40
2018-05-10T13:46:29.201Z,41.10
2018-05-10T13:48:57.615Z,41.20
2018-05-10T13:51:25.251Z,41.10
2018-05-10T13:53:53.616Z,42.90
2018-05-10T13:56:21.270Z,42.90
2018-05-10T13:58:48.900Z,43.60
2018-05-10T14:01:16.527Z,42.30
2018-05-10T14:03:44.148Z,41.70
2018-05-10T14:06:11.729Z,41.40
2018-05-10T14:08:40.091Z,42.20
2018-05-10T14:11:07.791Z,42.10
2018-05-10T14:13:35.381Z,42.70
2018-05-10T14:16:03.021Z,42.10
2018-05-10T14:18:30.665Z,41.40
2018-05-10T14:20:58.290Z,41.60
2018-05-10T14:23:25.900Z,42.30
2018-05-10T14:25:53.525Z,42.60
2018-05-10T14:28:21.921Z,42.40
2018-05-10T14:30:49.535Z,42.30
2018-05-10T14:33:17.200Z,42.50
2018-05-10T14:35:44.800Z,41.50
2018-05-10T14:38:13.181Z,42.90
2018-05-10T14:40:40.841Z,42.90
2018-05-10T14:43:09.220Z,43.40
2018-05-10T14:45:36.879Z,43.40
2018-05-10T14:48:04.519Z,42.90
2018-05-10T14:50:33.090Z,42.30
2018-05-10T14:53:00.766Z,42.30
2018-05-10T14:55:29.139Z,41.40
2018-05-10T14:57:56.742Z,41.40
2018-05-10T15:00:24.342Z,40.10
2018-05-10T15:02:51.931Z,39.10
2018-05-10T15:05:19.613Z,40.30
2018-05-10T15:07:47.318Z,40.90
2018-05-10T15:10:14.979Z,40.80
2018-05-10T15:12:42.595Z,40.40
2018-05-10T15:15:10.280Z,38.20
2018-05-10T15:20:11.929Z,40.40
2018-05-10T15:22:39.566Z,41.00
2018-05-10T15:25:07.969Z,40.30
2018-05-10T15:27:35.583Z,40.30
2018-05-10T15:30:03.220Z,38.90
2018-05-10T15:32:30.813Z,40.10
2018-05-10T15:34:59.247Z,41.40
2018-05-10T15:37:26.861Z,41.40
2018-05-10T15:39:55.250Z,41.00
2018-05-10T15:42:23.623Z,40.80
2018-05-10T15:44:52.001Z,40.70
2018-05-10T15:47:20.362Z,41.10
2018-05-10T15:49:48.759Z,40.80
2018-05-10T15:52:17.116Z,40.90
2018-05-10T15:54:44.715Z,40.80
2018-05-10T15:57:12.316Z,40.00
2018-05-10T15:59:39.930Z,40.40
2018-05-10T16:02:07.560Z,40.30
2018-05-10T16:04:35.940Z,39.20
2018-05-10T16:07:04.323Z,38.90
2018-05-10T16:09:32.658Z,38.90
2018-05-10T16:12:00.273Z,38.90
2018-05-10T16:14:28.635Z,39.90
2018-05-10T16:17:00.840Z,40.20
2018-05-10T16:19:29.264Z,40.20
2018-05-10T16:21:56.940Z,39.40
2018-05-10T16:24:25.364Z,39.30
2018-05-10T16:26:53.001Z,39.20
2018-05-10T16:29:20.675Z,39.50
2018-05-10T16:31:48.269Z,39.50
2018-05-10T16:34:15.910Z,40.30
2018-05-10T16:36:43.507Z,40.90
2018-05-10T16:39:11.132Z,41.60
2018-05-10T16:41:38.768Z,41.80
2018-05-10T16:44:06.382Z,41.40
2018-05-10T16:46:34.044Z,40.80
2018-05-10T16:49:01.636Z,40.50
2018-05-10T16:51:30.019Z,42.60
2018-05-10T16:53:58.175Z,42.60
2018-05-10T16:56:26.556Z,46.00
2018-05-10T16:58:54.919Z,46.90
2018-05-10T17:01:22.541Z,47.30
2018-05-10T17:03:50.160Z,46.50
2018-05-10T17:06:18.595Z,48.70
2018-05-10T17:08:46.195Z,48.70
2018-05-10T17:11:14.660Z,51.40
2018-05-10T17:13:42.280Z,51.30
2018-05-10T17:16:09.898Z,52.10
2018-05-10T17:18:38.346Z,50.70
2018-05-10T17:21:05.947Z,50.60
2018-05-10T17:23:33.586Z,50.90
2018-05-10T17:26:01.962Z,51.70
2018-05-10T17:28:30.338Z,52.70
2018-05-10T17:30:58.119Z,52.60
2018-05-10T17:33:26.782Z,53.70
2018-05-10T17:35:55.191Z,56.10
2018-05-10T17:38:22.799Z,56.10
2018-05-10T17:40:51.192Z,58.30
2018-05-10T17:43:18.838Z,58.40
2018-05-10T17:45:46.471Z,58.30
2018-05-10T17:48:14.152Z,59.30
2018-05-10T17:50:46.554Z,59.80
2018-05-10T17:53:18.623Z,61.00
2018-05-10T17:55:49.029Z,62.70
2018-05-10T17:58:16.780Z,62.80
2018-05-10T18:00:44.939Z,60.90
2018-05-10T18:03:13.868Z,61.80
2018-05-10T18:05:44.925Z,59.30
2018-05-10T18:08:15.390Z,60.20
2018-05-10T18:10:46.080Z,60.10
2018-05-10T18:13:15.119Z,61.00
2018-05-10T18:15:49.570Z,62.60
2018-05-10T18:18:22.567Z,67.20
2018-05-10T18:20:51.949Z,72.10
2018-05-10T18:23:22.083Z,72.00
2018-05-10T18:25:56.879Z,80.30
2018-05-10T18:28:27.434Z,80.30
2018-05-10T18:33:32.930Z,84.20
2018-05-10T18:36:03.679Z,87.20
2018-05-10T18:38:39.380Z,84.90
2018-05-10T18:41:13.870Z,90.70
2018-05-10T18:43:51.190Z,90.70
2018-05-10T18:46:20.754Z,90.90
2018-05-10T18:48:50.533Z,91.80
2018-05-10T18:51:23.759Z,92.60
2018-05-10T18:53:53.414Z,94.20
2018-05-10T18:56:21.900Z,94.20
2018-05-10T18:58:49.498Z,95.20
2018-05-10T19:01:17.138Z,96.00
2018-05-10T19:03:45.580Z,95.40
2018-05-10T19:06:13.219Z,95.40
2018-05-10T19:08:40.841Z,97.10
2018-05-10T19:11:08.485Z,97.50
2018-05-10T19:13:36.116Z,96.10
2018-05-10T19:16:03.754Z,95.90
2018-05-10T19:18:31.621Z,97.80
2018-05-10T19:20:59.362Z,97.90
2018-05-10T19:23:27.252Z,99.90
2018-05-10T19:25:55.004Z,99.90
2018-05-10T19:28:23.173Z,99.90
2018-05-10T19:30:50.814Z,99.90
2018-05-10T19:33:19.240Z,99.90
2018-05-10T19:35:46.920Z,99.90
2018-05-10T19:38:14.746Z,99.90
2018-05-10T19:40:42.367Z,99.90
2018-05-10T19:43:10.905Z,99.90
2018-05-10T19:45:38.567Z,99.90
2018-05-10T19:48:06.228Z,99.90
2018-05-10T19:50:33.866Z,99.90
2018-05-10T19:53:01.466Z,99.90
2018-05-10T19:55:29.157Z,99.90
2018-05-10T19:57:57.629Z,99.90
2018-05-10T20:00:26.048Z,99.90
2018-05-10T20:02:53.706Z,99.90
2018-05-10T20:05:21.319Z,99.90
2018-05-10T20:07:48.998Z,99.90
2018-05-10T20:10:17.642Z,99.90
2018-05-10T20:12:45.265Z,99.90
2018-05-10T20:15:12.941Z,99.90
2018-05-10T20:17:40.674Z,99.90
2018-05-10T20:20:09.100Z,99.90
2018-05-10T20:22:36.730Z,99.90
2018-05-10T20:25:04.411Z,99.90
2018-05-10T20:27:32.100Z,99.90
2018-05-10T20:29:59.742Z,99.90
2018-05-10T20:32:27.417Z,99.90
2018-05-10T20:34:55.038Z,99.90
2018-05-10T20:37:22.700Z,99.90
2018-05-10T20:39:50.319Z,99.90
2018-05-10T20:42:17.984Z,99.90
2018-05-10T20:44:45.853Z,99.90
2018-05-10T20:47:13.499Z,99.90
2018-05-10T20:49:41.181Z,99.90
2018-05-10T20:52:11.974Z,99.90
2018-05-10T20:54:39.568Z,99.90
2018-05-10T20:57:08.073Z,99.90
2018-05-10T20:59:35.740Z,99.90
2018-05-10T21:02:03.404Z,99.90
2018-05-10T21:04:31.081Z,99.90
2018-05-10T21:06:59.777Z,99.90
2018-05-10T21:09:27.558Z,99.90
2018-05-10T21:11:56.027Z,99.90
2018-05-10T21:14:24.504Z,99.90
2018-05-10T21:16:52.210Z,99.90
2018-05-10T21:19:20.600Z,99.90
2018-05-10T21:21:49.041Z,99.90
2018-05-10T21:24:16.711Z,99.90
2018-05-10T21:26:44.313Z,99.90
2018-05-10T21:29:12.000Z,99.90
2018-05-10T21:31:39.670Z,99.90
2018-05-10T21:34:07.336Z,99.90
2018-05-10T21:36:35.728Z,99.90
2018-05-10T21:39:03.424Z,99.90
2018-05-10T21:41:31.087Z,99.90
2018-05-10T21:43:58.711Z,99.90
2018-05-10T21:46:29.494Z,99.90
2018-05-10T21:48:57.154Z,99.90
2018-05-10T21:51:24.890Z,99.90
2018-05-10T21:53:53.303Z,99.90
2018-05-10T21:56:20.935Z,99.90
2018-05-10T21:58:49.349Z,99.90
2018-05-10T22:01:16.947Z,99.90
2018-05-10T22:03:44.688Z,99.90
2018-05-10T22:06:12.312Z,99.90
2018-05-10T22:08:39.951Z,99.90
2018-05-10T22:11:08.349Z,99.90
2018-05-10T22:13:35.980Z,99.90
2018-05-10T22:16:03.559Z,99.90
2018-05-10T22:18:31.969Z,99.90
2018-05-10T22:20:59.605Z,99.90
2018-05-10T22:23:28.019Z,99.90
2018-05-10T22:25:55.635Z,99.90
2018-05-10T22:28:24.001Z,99.90
2018-05-10T22:30:51.585Z,99.90
2018-05-10T22:33:19.184Z,99.90
2018-05-10T22:35:46.832Z,99.90
2018-05-10T22:38:14.490Z,99.90
2018-05-10T22:40:42.077Z,99.90
2018-05-10T22:43:09.698Z,99.90
2018-05-10T22:45:37.318Z,99.90
2018-05-10T22:48:04.977Z,99.90
2018-05-10T22:50:32.618Z,99.90
2018-05-10T22:53:00.259Z,99.90
2018-05-10T22:55:27.920Z,99.90
2018-05-10T22:57:55.533Z,99.90
2018-05-10T23:00:23.957Z,99.90
2018-05-10T23:02:51.577Z,99.90
2018-05-10T23:05:20.776Z,99.90
2018-05-10T23:07:49.156Z,99.90
2018-05-10T23:10:17.513Z,99.90
2018-05-10T23:12:45.156Z,99.90
2018-05-10T23:15:12.779Z,99.90
2018-05-10T23:17:40.418Z,99.90
2018-05-10T23:20:08.799Z,99.90
2018-05-10T23:22:36.432Z,99.90
2018-05-10T23:25:04.096Z,99.90
2018-05-10T23:27:32.486Z,99.90
2018-05-10T23:30:00.851Z,99.90
2018-05-10T23:32:28.450Z,99.90
2018-05-10T23:34:56.070Z,99.90
2018-05-10T23:37:23.728Z,99.90
2018-05-10T23:39:52.100Z,99.90
2018-05-10T23:42:19.712Z,99.90
2018-05-10T23:44:47.329Z,99.90
2018-05-10T23:47:15.693Z,99.90
2018-05-10T23:49:43.330Z,99.90
2018-05-10T23:52:10.980Z,99.90
2018-05-10T23:54:38.624Z,99.90
2018-05-10T23:57:06.235Z,99.90
2018-05-10T23:59:33.855Z,99.90
